Time;durP1;ratioP1;P1;durP2;ratioP2;P2;SDS_P1;SDS_P2;PMS_P1;PMS_P2;Temp;Humidity;BMP_temperature;BMP_pressure;BME280_temperature;BME280_humidity;BME280_pressure;Samples;Min_cycle;Max_cycle;Signal;HPM_P1;HPM_P2
2023/06/04 00:00:32;;;;;;;;;;;20.50;35.10;;;;;;5004591;28;19921;-60
2023/06/04 00:02:59;;;;;;;;;;;20.50;35.10;;;;;;5009076;28;19921;-59
2023/06/04 00:05:27;;;;;;;;;;;20.50;35.10;;;;;;5013070;28;19921;-60
2023/06/04 00:07:54;;;;;;;;;;;20.50;35.10;;;;;;5006914;28;19926;-60
2023/06/04 00:10:20;;;;;;;;;;;20.50;35.10;;;;;;5010535;28;19921;-59
2023/06/04 00:12:47;;;;;;;;;;;20.50;35.10;;;;;;5028862;28;20398;-59
2023/06/04 00:15:15;;;;;;;;;;;20.50;35.10;;;;;;5005769;28;19925;-60
2023/06/04 00:17:41;;;;;;;;;;;20.50;35.10;;;;;;5005416;28;19922;-59
2023/06/04 00:20:08;;;;;;;;;;;20.40;35.10;;;;;;5001843;28;19969;-60
2023/06/04 00:22:36;;;;;;;;;;;20.50;35.30;;;;;;5010272;28;19921;-60
2023/06/04 00:25:04;;;;;;;;;;;20.50;35.30;;;;;;5013057;28;19958;-59
2023/06/04 00:27:30;;;;;;;;;;;20.40;35.30;;;;;;4997160;28;19928;-59
2023/06/04 00:29:57;;;;;;;;;;;20.40;35.40;;;;;;5003311;28;19922;-59
2023/06/04 00:32:24;;;;;;;;;;;20.50;35.40;;;;;;5012473;28;19988;-59
2023/06/04 00:34:51;;;;;;;;;;;20.40;35.30;;;;;;5020015;28;19921;-59
2023/06/04 00:37:18;;;;;;;;;;;20.40;35.40;;;;;;5004923;28;19925;-59
2023/06/04 00:39:46;;;;;;;;;;;20.40;35.40;;;;;;5013803;28;19922;-59
2023/06/04 00:42:13;;;;;;;;;;;20.40;35.40;;;;;;5011879;28;20279;-59
2023/06/04 00:44:43;;;;;;;;;;;20.40;35.40;;;;;;5012748;28;20029;-59
2023/06/04 00:47:10;;;;;;;;;;;20.40;35.40;;;;;;5014679;28;19922;-59
2023/06/04 00:49:37;;;;;;;;;;;20.40;35.40;;;;;;5015765;28;19921;-59
2023/06/04 00:52:03;;;;;;;;;;;20.40;35.40;;;;;;5012598;28;19940;-59
2023/06/04 00:54:32;;;;;;;;;;;20.40;35.40;;;;;;5015198;28;19925;-59
2023/06/04 00:57:00;;;;;;;;;;;20.40;35.50;;;;;;5015226;28;19944;-59
2023/06/04 00:59:27;;;;;;;;;;;20.40;35.50;;;;;;5015249;28;19980;-59
2023/06/04 01:01:55;;;;;;;;;;;20.40;35.60;;;;;;4996951;28;19926;-59
2023/06/04 01:04:24;;;;;;;;;;;20.40;35.50;;;;;;4994657;28;19921;-59
2023/06/04 01:06:51;;;;;;;;;;;20.40;35.60;;;;;;4995215;28;19972;-59
2023/06/04 01:09:17;;;;;;;;;;;20.40;35.60;;;;;;4994913;28;19968;-60
2023/06/04 01:11:44;;;;;;;;;;;20.40;35.60;;;;;;4995402;28;19972;-59
2023/06/04 01:14:12;;;;;;;;;;;20.40;35.60;;;;;;4994494;28;19925;-59
2023/06/04 01:16:40;;;;;;;;;;;20.40;35.60;;;;;;4996175;28;19921;-59
2023/06/04 01:19:21;;;;;;;;;;;20.40;35.70;;;;;;4994622;28;19929;-60
2023/06/04 01:21:48;;;;;;;;;;;20.40;35.70;;;;;;4994419;28;19928;-59
2023/06/04 01:24:15;;;;;;;;;;;20.40;35.70;;;;;;5012833;28;19921;-60
2023/06/04 01:26:42;;;;;;;;;;;20.40;35.70;;;;;;5014829;28;20345;-60
2023/06/04 01:29:09;;;;;;;;;;;20.40;35.80;;;;;;5013260;28;19993;-60
2023/06/04 01:31:37;;;;;;;;;;;20.40;35.80;;;;;;5012300;28;20774;-60
2023/06/04 01:34:04;;;;;;;;;;;20.40;35.80;;;;;;5014887;28;19926;-60
2023/06/04 01:36:32;;;;;;;;;;;20.40;35.80;;;;;;4995605;28;19944;-59
2023/06/04 01:39:00;;;;;;;;;;;20.40;35.80;;;;;;5013577;28;20467;-59
2023/06/04 01:41:27;;;;;;;;;;;20.40;35.80;;;;;;5014600;28;20248;-59
2023/06/04 01:43:53;;;;;;;;;;;20.40;35.80;;;;;;5013903;28;19952;-60
2023/06/04 01:46:20;;;;;;;;;;;20.40;35.80;;;;;;5015114;28;19925;-59
2023/06/04 01:48:48;;;;;;;;;;;20.40;35.90;;;;;;5013430;28;19921;-59
2023/06/04 01:51:15;;;;;;;;;;;20.40;35.90;;;;;;5013607;28;20016;-59
2023/06/04 01:53:42;;;;;;;;;;;20.40;35.90;;;;;;5014378;28;19925;-60
2023/06/04 01:56:09;;;;;;;;;;;20.40;35.90;;;;;;5013768;28;19972;-59
2023/06/04 01:58:35;;;;;;;;;;;20.40;35.90;;;;;;5014180;28;19926;-59
2023/06/04 02:01:04;;;;;;;;;;;20.40;36.00;;;;;;5012875;28;20015;-59
2023/06/04 02:03:36;;;;;;;;;;;20.40;36.00;;;;;;5029984;28;19961;-59
2023/06/04 02:06:07;;;;;;;;;;;20.40;36.10;;;;;;5013961;28;19921;-59
2023/06/04 02:08:35;;;;;;;;;;;20.40;36.10;;;;;;5013105;28;19953;-59
2023/06/04 02:11:02;;;;;;;;;;;20.40;36.10;;;;;;4995047;28;19922;-59
2023/06/04 02:13:28;;;;;;;;;;;20.40;36.10;;;;;;4992313;28;19949;-59
2023/06/04 02:15:55;;;;;;;;;;;20.40;36.10;;;;;;4993499;28;19925;-59
2023/06/04 02:18:22;;;;;;;;;;;20.30;36.00;;;;;;4993756;28;19922;-59
2023/06/04 02:20:49;;;;;;;;;;;20.40;36.10;;;;;;4994034;28;19922;-59
2023/06/04 02:23:17;;;;;;;;;;;20.40;36.10;;;;;;4993746;28;19932;-59
2023/06/04 02:25:45;;;;;;;;;;;20.30;36.00;;;;;;4993308;28;19980;-59
2023/06/04 02:28:11;;;;;;;;;;;20.30;36.10;;;;;;4994353;28;20332;-59
2023/06/04 02:30:38;;;;;;;;;;;20.30;36.10;;;;;;4991985;28;20394;-59
2023/06/04 02:33:05;;;;;;;;;;;20.30;36.10;;;;;;5004433;28;19952;-60
2023/06/04 02:35:32;;;;;;;;;;;20.30;36.10;;;;;;5007494;28;19922;-59
2023/06/04 02:37:59;;;;;;;;;;;20.30;36.10;;;;;;5016914;28;19921;-59
2023/06/04 02:40:27;;;;;;;;;;;20.30;36.10;;;;;;5004699;28;19922;-59
2023/06/04 02:42:54;;;;;;;;;;;20.30;36.10;;;;;;5005537;28;19945;-59
2023/06/04 02:45:21;;;;;;;;;;;20.30;36.10;;;;;;5006018;28;19922;-59
2023/06/04 02:47:48;;;;;;;;;;;20.30;36.10;;;;;;5009659;28;19926;-59
2023/06/04 02:50:15;;;;;;;;;;;20.30;36.20;;;;;;5012837;28;19929;-59
2023/06/04 02:52:41;;;;;;;;;;;20.30;36.20;;;;;;5003721;28;19926;-59
2023/06/04 02:55:08;;;;;;;;;;;20.30;36.20;;;;;;5003051;28;19922;-59
2023/06/04 02:57:37;;;;;;;;;;;20.30;36.20;;;;;;5025183;28;19930;-59
2023/06/04 03:00:11;;;;;;;;;;;20.30;36.20;;;;;;5008863;28;19921;-59
2023/06/04 03:02:38;;;;;;;;;;;20.30;36.10;;;;;;5014853;28;19922;-59
2023/06/04 03:05:05;;;;;;;;;;;20.30;36.10;;;;;;5009324;28;20384;-59
2023/06/04 03:07:33;;;;;;;;;;;20.30;36.20;;;;;;5008714;28;19922;-59
2023/06/04 03:09:59;;;;;;;;;;;20.30;36.20;;;;;;5014070;28;19921;-59
2023/06/04 03:12:26;;;;;;;;;;;20.30;36.20;;;;;;4978989;28;19932;-59
2023/06/04 03:14:55;;;;;;;;;;;20.30;36.20;;;;;;4997426;28;19928;-60
2023/06/04 03:17:21;;;;;;;;;;;20.30;36.20;;;;;;4997846;28;20267;-60
2023/06/04 03:19:48;;;;;;;;;;;20.30;36.30;;;;;;5015770;28;19926;-60
2023/06/04 03:22:15;;;;;;;;;;;20.30;36.20;;;;;;5003020;28;20284;-60
2023/06/04 03:24:42;;;;;;;;;;;20.30;36.20;;;;;;5016538;28;20019;-60
2023/06/04 03:27:09;;;;;;;;;;;20.30;36.30;;;;;;5017024;28;20213;-60
2023/06/04 03:29:36;;;;;;;;;;;20.30;36.20;;;;;;5016482;28;19973;-60
2023/06/04 03:32:05;;;;;;;;;;;20.30;36.20;;;;;;5016207;28;19975;-60
2023/06/04 03:34:31;;;;;;;;;;;20.30;36.20;;;;;;5014283;28;19936;-60
2023/06/04 03:36:59;;;;;;;;;;;20.30;36.20;;;;;;5017422;28;19921;-60
2023/06/04 03:39:26;;;;;;;;;;;20.30;36.30;;;;;;5016768;28;20238;-60
2023/06/04 03:41:52;;;;;;;;;;;20.30;36.30;;;;;;5016698;28;19936;-60
2023/06/04 03:44:19;;;;;;;;;;;20.30;36.30;;;;;;5017648;28;19925;-60
2023/06/04 03:46:46;;;;;;;;;;;20.30;36.40;;;;;;5017021;28;19921;-60
2023/06/04 03:49:17;;;;;;;;;;;20.30;36.30;;;;;;5016674;28;19952;-60
2023/06/04 03:51:43;;;;;;;;;;;20.30;36.30;;;;;;5016689;28;19922;-60
2023/06/04 03:54:11;;;;;;;;;;;20.30;36.30;;;;;;5014040;28;19921;-60
2023/06/04 03:56:38;;;;;;;;;;;20.30;36.40;;;;;;5016581;28;19921;-60
2023/06/04 03:59:05;;;;;;;;;;;20.30;36.40;;;;;;5017405;28;19984;-60
2023/06/04 04:01:31;;;;;;;;;;;20.30;36.40;;;;;;5016154;28;19962;-60
2023/06/04 04:03:58;;;;;;;;;;;20.30;36.40;;;;;;5016420;28;19922;-60
2023/06/04 04:06:27;;;;;;;;;;;20.30;36.50;;;;;;5016986;28;19921;-60
2023/06/04 04:08:55;;;;;;;;;;;20.30;36.50;;;;;;5014159;28;19921;-60
2023/06/04 04:11:21;;;;;;;;;;;20.30;36.50;;;;;;5015867;28;19928;-60
2023/06/04 04:13:48;;;;;;;;;;;20.30;36.50;;;;;;5015531;28;19925;-60
2023/06/04 04:16:15;;;;;;;;;;;20.30;36.50;;;;;;5013742;28;20020;-60
2023/06/04 04:18:42;;;;;;;;;;;20.20;36.40;;;;;;5015877;28;19976;-60
2023/06/04 04:21:10;;;;;;;;;;;20.20;36.40;;;;;;5015154;28;19921;-60
2023/06/04 04:23:38;;;;;;;;;;;20.20;36.40;;;;;;5013377;28;19922;-60
2023/06/04 04:26:06;;;;;;;;;;;20.30;36.50;;;;;;5013416;28;19975;-59
2023/06/04 04:28:34;;;;;;;;;;;20.20;36.40;;;;;;5016018;28;19922;-60
2023/06/04 04:31:02;;;;;;;;;;;20.20;36.40;;;;;;5015186;28;19928;-60
2023/06/04 04:33:32;;;;;;;;;;;20.20;36.40;;;;;;5016067;28;19925;-61
2023/06/04 04:35:59;;;;;;;;;;;20.20;36.40;;;;;;5015699;28;19928;-60
2023/06/04 04:38:25;;;;;;;;;;;20.20;36.50;;;;;;5016636;28;19925;-60
2023/06/04 04:40:54;;;;;;;;;;;20.20;36.50;;;;;;5011609;28;19922;-60
2023/06/04 04:43:28;;;;;;;;;;;20.30;36.70;;;;;;4995974;28;20344;-60
2023/06/04 04:45:55;;;;;;;;;;;20.20;36.60;;;;;;5010552;28;20020;-60
2023/06/04 04:48:22;;;;;;;;;;;20.20;36.60;;;;;;5015394;28;19929;-59
2023/06/04 04:50:49;;;;;;;;;;;20.20;36.60;;;;;;5015267;28;19944;-59
2023/06/04 04:53:15;;;;;;;;;;;20.20;36.60;;;;;;5014897;28;19921;-60
2023/06/04 04:55:42;;;;;;;;;;;20.20;36.70;;;;;;5010145;28;19961;-59
2023/06/04 04:58:10;;;;;;;;;;;20.20;36.60;;;;;;4994205;28;19922;-59
2023/06/04 05:00:37;;;;;;;;;;;20.20;36.70;;;;;;4995700;28;19968;-59
2023/06/04 05:03:04;;;;;;;;;;;20.20;37.30;;;;;;4994961;28;19929;-60
2023/06/04 05:05:30;;;;;;;;;;;20.30;36.70;;;;;;5000299;28;19968;-60
2023/06/04 05:07:57;;;;;;;;;;;20.20;36.70;;;;;;5011443;28;20459;-60
2023/06/04 05:10:24;;;;;;;;;;;20.20;36.70;;;;;;4995380;28;19921;-60
2023/06/04 05:12:51;;;;;;;;;;;20.20;36.80;;;;;;4995458;28;19922;-60
2023/06/04 05:15:20;;;;;;;;;;;20.20;36.80;;;;;;4993821;28;19956;-60
2023/06/04 05:17:47;;;;;;;;;;;20.20;36.80;;;;;;5011123;28;19975;-60
2023/06/04 05:20:15;;;;;;;;;;;20.20;36.80;;;;;;5015856;28;19921;-60
2023/06/04 05:22:43;;;;;;;;;;;20.20;36.80;;;;;;5015922;28;20017;-60
2023/06/04 05:25:09;;;;;;;;;;;20.20;36.80;;;;;;5012084;28;19921;-60
2023/06/04 05:27:36;;;;;;;;;;;20.20;36.90;;;;;;5014708;28;19926;-60
2023/06/04 05:30:03;;;;;;;;;;;20.20;36.90;;;;;;5014009;28;19926;-60
2023/06/04 05:32:32;;;;;;;;;;;20.20;36.90;;;;;;5014303;28;19921;-60
2023/06/04 05:34:59;;;;;;;;;;;20.20;36.90;;;;;;5015197;28;19983;-60
2023/06/04 05:37:26;;;;;;;;;;;20.20;37.00;;;;;;5015622;28;19921;-60
2023/06/04 05:39:53;;;;;;;;;;;20.20;37.00;;;;;;5014142;28;20004;-60
2023/06/04 05:42:20;;;;;;;;;;;20.20;37.00;;;;;;5014057;28;19921;-60
2023/06/04 05:44:48;;;;;;;;;;;20.20;37.00;;;;;;5015172;28;19921;-60
2023/06/04 05:47:16;;;;;;;;;;;20.20;37.00;;;;;;5013856;28;19921;-60
2023/06/04 05:49:44;;;;;;;;;;;20.20;36.90;;;;;;5030110;28;20018;-60
2023/06/04 05:52:11;;;;;;;;;;;20.20;37.00;;;;;;4993918;28;19968;-60
2023/06/04 05:54:38;;;;;;;;;;;20.20;37.00;;;;;;4994900;28;20038;-60
2023/06/04 05:57:05;;;;;;;;;;;20.20;37.00;;;;;;4994606;28;20371;-60
2023/06/04 05:59:32;;;;;;;;;;;20.20;37.00;;;;;;4994008;28;19921;-60
2023/06/04 06:01:58;;;;;;;;;;;20.20;37.10;;;;;;4993419;28;19923;-60
2023/06/04 06:04:25;;;;;;;;;;;20.20;37.10;;;;;;5013932;28;19921;-60
2023/06/04 06:06:54;;;;;;;;;;;20.20;37.10;;;;;;5026600;28;19921;-60
2023/06/04 06:09:20;;;;;;;;;;;20.30;37.20;;;;;;5014766;28;19922;-60
2023/06/04 06:11:47;;;;;;;;;;;20.20;37.20;;;;;;5010531;28;19925;-60
2023/06/04 06:14:14;;;;;;;;;;;20.20;37.20;;;;;;5014142;28;19944;-60
2023/06/04 06:16:41;;;;;;;;;;;20.20;37.30;;;;;;5011456;28;19929;-60
2023/06/04 06:19:08;;;;;;;;;;;20.20;37.40;;;;;;5015097;28;19987;-60
2023/06/04 06:21:36;;;;;;;;;;;20.20;37.30;;;;;;5014074;28;19971;-60
2023/06/04 06:24:04;;;;;;;;;;;20.20;37.40;;;;;;5012621;28;20266;-60
2023/06/04 06:26:31;;;;;;;;;;;20.20;37.50;;;;;;5013089;28;19921;-60
2023/06/04 06:28:58;;;;;;;;;;;20.20;37.50;;;;;;5008349;28;20264;-60
2023/06/04 06:31:25;;;;;;;;;;;20.20;37.60;;;;;;5012896;28;19921;-60
2023/06/04 06:33:52;;;;;;;;;;;20.20;37.60;;;;;;5013497;28;19976;-60
2023/06/04 06:36:19;;;;;;;;;;;20.20;37.60;;;;;;5011358;28;19922;-59
2023/06/04 06:38:46;;;;;;;;;;;20.20;37.70;;;;;;5013010;28;19968;-60
2023/06/04 06:41:14;;;;;;;;;;;20.20;37.60;;;;;;5013713;28;19922;-60
2023/06/04 06:43:41;;;;;;;;;;;20.20;37.70;;;;;;5000424;28;19922;-60
2023/06/04 06:46:08;;;;;;;;;;;20.20;37.70;;;;;;4993330;28;20058;-60
2023/06/04 06:48:37;;;;;;;;;;;20.20;37.60;;;;;;5008316;28;19972;-59
2023/06/04 06:51:03;;;;;;;;;;;20.20;37.70;;;;;;5029379;28;19922;-59
2023/06/04 06:53:30;;;;;;;;;;;20.20;37.60;;;;;;5012489;28;19926;-59
2023/06/04 06:55:57;;;;;;;;;;;20.20;37.50;;;;;;5013700;28;19925;-58
2023/06/04 06:58:25;;;;;;;;;;;20.20;37.50;;;;;;4998780;28;19984;-59
2023/06/04 07:00:54;;;;;;;;;;;20.20;37.60;;;;;;4991616;28;19929;-59
2023/06/04 07:03:21;;;;;;;;;;;20.20;37.70;;;;;;5011254;28;19928;-59
2023/06/04 07:05:48;;;;;;;;;;;20.20;37.70;;;;;;5006540;28;19984;-58
2023/06/04 07:08:16;;;;;;;;;;;20.20;37.60;;;;;;5029626;28;20343;-58
2023/06/04 07:10:42;;;;;;;;;;;20.20;37.70;;;;;;5010572;28;19945;-58
2023/06/04 07:13:09;;;;;;;;;;;20.30;37.80;;;;;;5013599;28;19922;-59
2023/06/04 07:15:37;;;;;;;;;;;20.30;37.80;;;;;;5012611;28;19940;-59
2023/06/04 07:18:04;;;;;;;;;;;20.30;37.80;;;;;;5011689;28;20424;-59
2023/06/04 07:20:31;;;;;;;;;;;20.30;37.80;;;;;;5011023;28;19922;-59
2023/06/04 07:22:57;;;;;;;;;;;20.30;37.80;;;;;;5011803;28;19925;-59
2023/06/04 07:25:25;;;;;;;;;;;20.30;37.80;;;;;;5004601;28;20375;-58
2023/06/04 07:27:52;;;;;;;;;;;20.30;37.90;;;;;;5012148;28;20283;-59
2023/06/04 07:30:19;;;;;;;;;;;20.30;37.80;;;;;;5012798;28;20280;-59
2023/06/04 07:32:48;;;;;;;;;;;20.30;37.90;;;;;;5014324;28;19921;-59
2023/06/04 07:35:15;;;;;;;;;;;20.30;37.90;;;;;;5013328;28;19922;-59
2023/06/04 07:37:44;;;;;;;;;;;20.30;37.90;;;;;;5012531;28;19921;-58
2023/06/04 07:40:11;;;;;;;;;;;20.30;37.80;;;;;;5013669;28;19921;-59
2023/06/04 07:42:38;;;;;;;;;;;20.30;37.90;;;;;;5014276;28;19968;-58
2023/06/04 07:45:05;;;;;;;;;;;20.30;37.90;;;;;;4999701;28;19933;-59
2023/06/04 07:47:32;;;;;;;;;;;20.30;37.80;;;;;;4999589;28;19992;-59
2023/06/04 07:50:00;;;;;;;;;;;20.30;37.70;;;;;;5015536;28;19921;-59
2023/06/04 07:52:27;;;;;;;;;;;20.30;37.70;;;;;;5017178;28;19925;-59
2023/06/04 07:54:53;;;;;;;;;;;20.30;37.70;;;;;;5014928;28;19921;-59
2023/06/04 07:57:20;;;;;;;;;;;20.30;37.70;;;;;;5016355;28;19921;-59
2023/06/04 07:59:47;;;;;;;;;;;20.30;37.70;;;;;;5013711;28;19925;-58
2023/06/04 08:02:14;;;;;;;;;;;20.30;37.70;;;;;;5016320;28;19976;-59
2023/06/04 08:04:41;;;;;;;;;;;20.40;37.80;;;;;;5016916;28;19921;-59
2023/06/04 08:07:09;;;;;;;;;;;20.40;37.80;;;;;;5015623;28;19925;-60
2023/06/04 08:09:36;;;;;;;;;;;20.40;37.80;;;;;;5016178;28;20267;-60
2023/06/04 08:12:03;;;;;;;;;;;20.40;37.90;;;;;;5011233;28;20371;-60
2023/06/04 08:14:31;;;;;;;;;;;20.40;38.00;;;;;;5015886;28;19971;-60
2023/06/04 08:17:00;;;;;;;;;;;20.40;38.00;;;;;;5015420;28;19931;-60
2023/06/04 08:19:27;;;;;;;;;;;20.40;38.00;;;;;;5015709;28;19921;-60
2023/06/04 08:21:53;;;;;;;;;;;20.40;38.00;;;;;;5016149;28;20319;-60
2023/06/04 08:24:22;;;;;;;;;;;20.40;38.00;;;;;;5016145;28;19976;-60
2023/06/04 08:26:50;;;;;;;;;;;20.40;38.00;;;;;;5015757;28;19921;-61
2023/06/04 08:29:16;;;;;;;;;;;20.40;38.10;;;;;;5014121;28;19936;-58
2023/06/04 08:31:43;;;;;;;;;;;20.40;38.70;;;;;;4993877;28;19922;-61
2023/06/04 08:34:10;;;;;;;;;;;20.40;38.00;;;;;;4995627;28;19922;-60
2023/06/04 08:36:37;;;;;;;;;;;20.40;38.00;;;;;;4996898;28;19983;-60
2023/06/04 08:39:03;;;;;;;;;;;20.40;38.00;;;;;;4996681;28;19953;-60
2023/06/04 08:41:34;;;;;;;;;;;20.40;37.90;;;;;;4995448;28;19984;-60
2023/06/04 08:44:02;;;;;;;;;;;20.40;37.90;;;;;;5016920;28;19975;-60
2023/06/04 08:46:28;;;;;;;;;;;20.40;38.00;;;;;;5018316;28;19971;-60
2023/06/04 08:48:56;;;;;;;;;;;20.40;38.00;;;;;;5031612;28;19921;-61
2023/06/04 08:51:22;;;;;;;;;;;20.40;38.00;;;;;;5035091;28;19962;-60
2023/06/04 08:53:53;;;;;;;;;;;20.40;38.00;;;;;;5034531;28;19929;-60
2023/06/04 08:56:20;;;;;;;;;;;20.40;38.00;;;;;;5036066;28;19921;-60
2023/06/04 08:58:48;;;;;;;;;;;20.40;38.00;;;;;;5032384;28;20371;-60
2023/06/04 09:01:15;;;;;;;;;;;20.40;38.00;;;;;;5034340;28;19921;-60
2023/06/04 09:03:42;;;;;;;;;;;20.40;38.00;;;;;;5015816;28;19965;-60
2023/06/04 09:06:09;;;;;;;;;;;20.40;38.00;;;;;;5014670;28;20020;-60
2023/06/04 09:08:37;;;;;;;;;;;20.40;38.00;;;;;;5016488;28;19925;-62
2023/06/04 09:11:04;;;;;;;;;;;20.40;38.10;;;;;;5015723;28;19929;-61
2023/06/04 09:13:33;;;;;;;;;;;20.40;38.10;;;;;;5013488;28;21341;-60
2023/06/04 09:16:01;;;;;;;;;;;20.40;38.10;;;;;;5016120;28;20311;-60
2023/06/04 09:18:28;;;;;;;;;;;20.40;38.10;;;;;;5012184;28;19921;-61
2023/06/04 09:21:01;;;;;;;;;;;20.40;38.00;;;;;;5012299;28;19971;-61
2023/06/04 09:23:28;;;;;;;;;;;20.40;38.00;;;;;;5010984;28;19922;-60
2023/06/04 09:25:55;;;;;;;;;;;20.40;38.00;;;;;;5010769;28;19921;-61
2023/06/04 09:28:22;;;;;;;;;;;20.40;37.70;;;;;;5010291;28;19921;-60
2023/06/04 09:30:51;;;;;;;;;;;20.40;37.20;;;;;;4999553;28;20431;-61
2023/06/04 09:33:20;;;;;;;;;;;20.40;37.20;;;;;;5005817;28;19984;-59
2023/06/04 09:35:54;;;;;;;;;;;20.40;37.30;;;;;;5003280;28;20008;-60
2023/06/04 09:38:20;;;;;;;;;;;20.40;36.90;;;;;;4999825;28;19921;-59
2023/06/04 09:40:47;;;;;;;;;;;20.40;36.70;;;;;;5006586;28;19936;-60
2023/06/04 09:43:21;;;;;;;;;;;20.30;36.50;;;;;;5022585;28;19928;-60
2023/06/04 09:45:48;;;;;;;;;;;20.30;36.50;;;;;;5002008;28;20000;-61
2023/06/04 09:48:21;;;;;;;;;;;20.30;36.70;;;;;;5002550;28;19921;-61
2023/06/04 09:50:47;;;;;;;;;;;20.30;36.60;;;;;;5011491;28;20019;-61
2023/06/04 09:53:16;;;;;;;;;;;20.30;36.40;;;;;;5000797;28;20390;-61
2023/06/04 09:55:43;;;;;;;;;;;20.30;36.50;;;;;;5001470;28;19922;-65
2023/06/04 09:58:11;;;;;;;;;;;20.30;36.70;;;;;;5010923;28;19922;-65
2023/06/04 10:00:38;;;;;;;;;;;20.30;36.70;;;;;;5012561;28;19921;-66
2023/06/04 10:03:05;;;;;;;;;;;20.30;36.80;;;;;;4999480;28;19929;-66
2023/06/04 10:05:34;;;;;;;;;;;20.30;36.90;;;;;;5004791;28;19929;-66
2023/06/04 10:08:01;;;;;;;;;;;20.30;36.90;;;;;;5009575;28;19925;-66
2023/06/04 10:10:28;;;;;;;;;;;20.30;37.00;;;;;;5009729;28;19921;-66
2023/06/04 10:12:56;;;;;;;;;;;20.30;37.00;;;;;;5011194;28;19987;-66
2023/06/04 10:15:22;;;;;;;;;;;20.40;37.20;;;;;;5010210;28;20008;-66
2023/06/04 10:17:49;;;;;;;;;;;20.40;37.20;;;;;;5026293;28;19925;-66
2023/06/04 10:20:16;;;;;;;;;;;20.40;37.20;;;;;;5011051;28;19921;-66
2023/06/04 10:22:44;;;;;;;;;;;20.40;37.30;;;;;;5010402;28;19929;-66
2023/06/04 10:25:11;;;;;;;;;;;20.40;37.20;;;;;;5012718;28;19922;-66
2023/06/04 10:27:38;;;;;;;;;;;20.50;37.30;;;;;;5008434;28;19922;-66
2023/06/04 10:30:06;;;;;;;;;;;20.50;37.90;;;;;;5004230;28;19925;-66
2023/06/04 10:32:32;;;;;;;;;;;20.50;37.40;;;;;;5017587;28;19926;-66
2023/06/04 10:35:00;;;;;;;;;;;20.50;37.40;;;;;;5008987;28;19940;-65
2023/06/04 10:37:29;;;;;;;;;;;20.50;37.40;;;;;;5011847;28;19960;-66
2023/06/04 10:39:57;;;;;;;;;;;20.50;37.40;;;;;;5013119;28;19937;-66
2023/06/04 10:42:24;;;;;;;;;;;20.50;37.40;;;;;;5029696;28;19922;-66
2023/06/04 10:44:51;;;;;;;;;;;20.60;37.60;;;;;;5013653;28;19922;-65
2023/06/04 10:47:21;;;;;;;;;;;20.60;37.50;;;;;;5012712;28;19933;-65
2023/06/04 10:49:48;;;;;;;;;;;20.60;37.60;;;;;;5013273;28;20016;-66
2023/06/04 10:52:15;;;;;;;;;;;20.60;37.60;;;;;;5025649;28;20336;-66
2023/06/04 10:54:42;;;;;;;;;;;20.60;37.60;;;;;;5013511;28;19937;-66
2023/06/04 10:57:16;;;;;;;;;;;20.60;37.70;;;;;;5029913;28;19929;-66
2023/06/04 10:59:43;;;;;;;;;;;20.60;37.60;;;;;;5007914;28;20415;-65
2023/06/04 11:02:12;;;;;;;;;;;20.60;38.20;;;;;;5026291;28;19932;-66
2023/06/04 11:04:40;;;;;;;;;;;20.60;37.70;;;;;;5010086;28;19921;-66
2023/06/04 11:07:08;;;;;;;;;;;20.60;37.70;;;;;;5008251;28;19925;-66
2023/06/04 11:09:35;;;;;;;;;;;20.60;37.70;;;;;;5010929;28;20360;-67
2023/06/04 11:12:02;;;;;;;;;;;20.70;37.70;;;;;;5001698;28;19922;-66
2023/06/04 11:14:30;;;;;;;;;;;20.70;37.80;;;;;;5014617;28;19921;-66
2023/06/04 11:16:57;;;;;;;;;;;20.70;37.80;;;;;;5016094;28;19929;-66
2023/06/04 11:19:23;;;;;;;;;;;20.70;37.80;;;;;;5014811;28;19926;-66
2023/06/04 11:21:50;;;;;;;;;;;20.70;37.80;;;;;;5013652;28;20396;-66
2023/06/04 11:24:17;;;;;;;;;;;20.70;37.80;;;;;;5021991;28;19921;-66
2023/06/04 11:26:44;;;;;;;;;;;20.70;37.80;;;;;;5013075;28;19921;-66
2023/06/04 11:29:11;;;;;;;;;;;20.70;37.90;;;;;;5012019;28;19937;-66
2023/06/04 11:31:46;;;;;;;;;;;20.70;37.90;;;;;;5014821;28;19922;-66
2023/06/04 11:34:22;;;;;;;;;;;20.70;37.90;;;;;;5011097;28;20359;-66
2023/06/04 11:36:49;;;;;;;;;;;20.70;37.90;;;;;;5009162;28;19949;-66
2023/06/04 11:39:16;;;;;;;;;;;20.70;37.90;;;;;;5013694;28;19922;-66
2023/06/04 11:41:43;;;;;;;;;;;20.70;37.90;;;;;;5015451;28;19922;-66
2023/06/04 11:44:09;;;;;;;;;;;20.70;37.90;;;;;;5033674;28;19968;-67
2023/06/04 11:46:36;;;;;;;;;;;20.70;37.90;;;;;;5033479;28;19972;-67
2023/06/04 11:49:04;;;;;;;;;;;20.80;38.00;;;;;;5033384;28;19922;-67
2023/06/04 11:51:31;;;;;;;;;;;20.70;38.00;;;;;;5013265;28;19929;-66
2023/06/04 11:53:58;;;;;;;;;;;20.80;38.00;;;;;;5016623;28;19968;-67
2023/06/04 11:56:25;;;;;;;;;;;20.80;38.00;;;;;;5016419;28;19953;-66
2023/06/04 11:58:52;;;;;;;;;;;20.80;38.00;;;;;;5016053;28;20371;-66
2023/06/04 12:01:19;;;;;;;;;;;20.80;38.00;;;;;;5013854;28;20422;-66
2023/06/04 12:03:46;;;;;;;;;;;20.80;38.00;;;;;;5032202;28;20016;-66
2023/06/04 12:06:15;;;;;;;;;;;20.80;38.10;;;;;;5015253;28;19925;-66
2023/06/04 12:08:45;;;;;;;;;;;20.80;38.10;;;;;;5016631;28;19929;-66
2023/06/04 12:11:20;;;;;;;;;;;20.80;38.10;;;;;;5015946;28;19929;-66
2023/06/04 12:13:47;;;;;;;;;;;20.80;38.10;;;;;;5030444;28;19921;-66
2023/06/04 12:16:15;;;;;;;;;;;20.80;38.10;;;;;;5016734;28;20241;-66
2023/06/04 12:18:41;;;;;;;;;;;20.80;38.10;;;;;;5016919;28;19944;-66
2023/06/04 12:21:19;;;;;;;;;;;20.80;38.10;;;;;;5015577;28;19928;-66
2023/06/04 12:23:46;;;;;;;;;;;20.80;38.10;;;;;;4996538;28;19921;-66
2023/06/04 12:26:23;;;;;;;;;;;20.80;38.10;;;;;;5012113;28;19932;-66
2023/06/04 12:28:58;;;;;;;;;;;20.80;38.20;;;;;;5004948;28;19921;-66
2023/06/04 12:31:31;;;;;;;;;;;20.80;38.20;;;;;;5014091;28;19921;-66
2023/06/04 12:33:58;;;;;;;;;;;20.80;38.10;;;;;;5013315;28;19944;-66
2023/06/04 12:36:26;;;;;;;;;;;20.80;38.20;;;;;;5013390;28;19952;-62
2023/06/04 12:38:52;;;;;;;;;;;20.80;38.20;;;;;;5011757;28;19933;-56
2023/06/04 12:41:19;;;;;;;;;;;20.80;38.20;;;;;;5029974;28;19928;-61
2023/06/04 12:43:46;;;;;;;;;;;20.80;39.00;;;;;;4997969;28;19925;-61
2023/06/04 12:46:13;;;;;;;;;;;20.90;38.60;;;;;;5012910;28;19926;-61
2023/06/04 12:48:40;;;;;;;;;;;20.90;38.60;;;;;;5028595;28;19925;-62
2023/06/04 12:51:07;;;;;;;;;;;20.90;38.10;;;;;;5011769;28;19929;-63
2023/06/04 12:53:36;;;;;;;;;;;20.90;38.20;;;;;;5016215;28;19925;-61
2023/06/04 12:56:02;;;;;;;;;;;20.90;38.20;;;;;;5013223;28;19925;-61
2023/06/04 12:58:30;;;;;;;;;;;20.90;38.00;;;;;;5013111;28;19921;-62
2023/06/04 13:00:57;;;;;;;;;;;20.80;38.00;;;;;;5014738;28;19974;-61
2023/06/04 13:03:24;;;;;;;;;;;20.80;38.10;;;;;;5012924;28;19921;-61
2023/06/04 13:05:51;;;;;;;;;;;20.80;38.00;;;;;;5012236;28;19936;-60
2023/06/04 13:08:18;;;;;;;;;;;20.80;38.00;;;;;;5014467;28;20272;-61
2023/06/04 13:10:46;;;;;;;;;;;20.80;38.00;;;;;;4994797;28;19984;-61
2023/06/04 13:13:15;;;;;;;;;;;20.80;37.90;;;;;;5009298;28;20331;-61
2023/06/04 13:15:42;;;;;;;;;;;20.80;37.70;;;;;;5014605;28;19922;-61
2023/06/04 13:18:09;;;;;;;;;;;20.80;37.00;;;;;;5005509;28;19922;-61
2023/06/04 13:20:36;;;;;;;;;;;20.80;36.70;;;;;;5012780;28;19972;-61
2023/06/04 13:23:03;;;;;;;;;;;20.80;36.90;;;;;;5011840;28;19926;-61
2023/06/04 13:25:32;;;;;;;;;;;20.80;37.10;;;;;;5028328;28;19987;-61
2023/06/04 13:28:00;;;;;;;;;;;20.80;37.10;;;;;;5012798;28;19922;-61
2023/06/04 13:30:27;;;;;;;;;;;20.80;37.00;;;;;;5014190;28;19922;-62
2023/06/04 13:32:53;;;;;;;;;;;20.80;37.00;;;;;;5012754;28;19972;-59
2023/06/04 13:35:20;;;;;;;;;;;20.80;37.00;;;;;;5013519;28;20331;-61
2023/06/04 13:37:47;;;;;;;;;;;20.80;37.10;;;;;;5009572;28;19929;-61
2023/06/04 13:40:14;;;;;;;;;;;20.80;37.10;;;;;;5012543;28;19952;-62
2023/06/04 13:42:42;;;;;;;;;;;20.80;37.10;;;;;;5001810;28;20327;-62
2023/06/04 13:45:11;;;;;;;;;;;20.80;37.10;;;;;;5010398;28;19929;-61
2023/06/04 13:47:38;;;;;;;;;;;20.80;37.10;;;;;;5004594;28;19928;-61
2023/06/04 13:50:05;;;;;;;;;;;20.80;37.20;;;;;;5013869;28;19972;-61
2023/06/04 13:52:31;;;;;;;;;;;20.80;37.20;;;;;;5014160;28;19933;-62
2023/06/04 13:54:59;;;;;;;;;;;20.80;37.20;;;;;;5010984;28;19926;-61
2023/06/04 13:57:26;;;;;;;;;;;20.90;37.30;;;;;;5018578;28;19921;-62
2023/06/04 13:59:53;;;;;;;;;;;20.90;37.00;;;;;;5026339;28;19921;-60
2023/06/04 14:02:21;;;;;;;;;;;20.90;37.10;;;;;;5010693;28;20020;-61
2023/06/04 14:04:48;;;;;;;;;;;20.80;37.10;;;;;;5012609;28;19989;-61
2023/06/04 14:07:14;;;;;;;;;;;20.90;37.20;;;;;;5011930;28;19922;-61
2023/06/04 14:09:41;;;;;;;;;;;20.90;37.20;;;;;;5011044;28;19922;-62
2023/06/04 14:12:08;;;;;;;;;;;20.90;37.20;;;;;;5011714;28;19928;-62
2023/06/04 14:14:37;;;;;;;;;;;20.90;37.20;;;;;;5010516;28;19922;-61
2023/06/04 14:17:03;;;;;;;;;;;20.90;37.20;;;;;;5003446;28;19925;-62